Time;durP1;ratioP1;P1;durP2;ratioP2;P2;SDS_P1;SDS_P2;PMS_P1;PMS_P2;Temp;Humidity;BMP_temperature;BMP_pressure;BME280_temperature;BME280_humidity;BME280_pressure;Samples;Min_cycle;Max_cycle;Signal;HPM_P1;HPM_P2
2022/02/22 00:01:03;;;;;;;4.17;1.20;;;5.40;99.90;;;6.43;100.00;-19945.63;5111755;28;20607;-59
2022/02/22 00:03:35;;;;;;;3.67;1.50;;;5.40;99.90;;;6.22;100.00;-19938.63;5111094;28;20230;-59
2022/02/22 00:06:04;;;;;;;3.60;1.20;;;5.40;99.90;;;6.26;100.00;-19940.00;5111280;28;20264;-60
2022/02/22 00:08:33;;;;;;;4.07;1.50;;;5.40;99.90;;;6.33;100.00;-19942.38;5110932;28;20270;-61
2022/02/22 00:11:01;;;;;;;6.53;2.13;;;5.40;99.90;;;6.48;100.00;-19947.34;5110728;28;20232;-60
2022/02/22 00:13:29;;;;;;;3.97;1.30;;;5.50;99.90;;;6.28;100.00;-19940.69;5110613;28;20645;-59
2022/02/22 00:16:00;;;;;;;4.33;1.80;;;5.40;99.90;;;6.23;100.00;-19938.97;5111292;28;20216;-60
2022/02/22 00:18:28;;;;;;;2.73;1.20;;;5.40;99.90;;;6.40;100.00;-19944.78;5110699;28;20288;-60
2022/02/22 00:20:57;;;;;;;3.17;1.17;;;5.40;99.90;;;6.42;100.00;-19945.28;5110622;28;20265;-60
2022/02/22 00:23:25;;;;;;;2.63;1.17;;;5.50;99.90;;;6.56;100.00;-19950.25;5110417;28;20240;-60
2022/02/22 00:25:53;;;;;;;2.17;1.03;;;5.50;99.90;;;6.49;100.00;-19947.69;5110949;28;20305;-59
2022/02/22 00:28:21;;;;;;;2.93;0.90;;;5.50;99.90;;;6.40;100.00;-19944.78;5110622;28;20289;-60
2022/02/22 00:30:50;;;;;;;2.83;1.10;;;5.50;99.90;;;6.41;100.00;-19944.94;5111493;28;20236;-60
2022/02/22 00:33:19;;;;;;;2.20;0.90;;;5.50;99.90;;;6.39;100.00;-19944.44;5110567;28;20222;-60
2022/02/22 00:35:49;;;;;;;3.23;1.00;;;5.40;99.90;;;6.39;100.00;-19944.44;5110156;28;20222;-60
2022/02/22 00:38:17;;;;;;;1.43;0.80;;;5.50;99.90;;;6.39;100.00;-19944.44;5110307;28;20265;-60
2022/02/22 00:40:45;;;;;;;4.00;1.10;;;5.50;99.90;;;6.39;100.00;-19944.44;5112386;28;20240;-59
2022/02/22 00:43:13;;;;;;;2.93;1.00;;;5.50;99.90;;;6.42;100.00;-19945.28;5114013;28;20219;-60
2022/02/22 00:45:42;;;;;;;3.20;1.07;;;5.50;99.90;;;6.48;100.00;-19947.34;5115073;28;20215;-60
2022/02/22 00:48:10;;;;;;;2.23;0.90;;;5.50;99.90;;;6.49;100.00;-19947.69;5114316;28;20265;-59
2022/02/22 00:50:39;;;;;;;1.80;1.17;;;5.50;99.90;;;6.49;100.00;-19947.84;5114069;28;20773;-60
2022/02/22 00:53:07;;;;;;;3.73;1.20;;;5.50;99.90;;;6.53;100.00;-19949.06;5113742;28;20780;-63
2022/02/22 00:55:36;;;;;;;2.37;1.00;;;5.50;99.90;;;6.52;100.00;-19948.72;5114084;28;20327;-61
2022/02/22 00:58:04;;;;;;;2.30;1.20;;;5.50;99.90;;;6.43;100.00;-19945.63;5114573;28;20293;-59
2022/02/22 01:00:32;;;;;;;1.50;1.00;;;5.50;99.90;;;6.49;100.00;-19947.69;5114327;28;20214;-60
2022/02/22 01:03:00;;;;;;;1.60;0.90;;;5.50;99.90;;;6.52;100.00;-19948.88;5113964;28;20229;-60
2022/02/22 01:05:28;;;;;;;1.97;0.90;;;5.50;99.90;;;6.51;100.00;-19948.53;5113710;28;20253;-60
2022/02/22 01:07:58;;;;;;;3.00;1.33;;;5.50;99.90;;;6.58;100.00;-19950.94;5113905;28;20242;-60
2022/02/22 01:10:26;;;;;;;2.40;1.00;;;5.50;99.90;;;6.36;100.00;-19943.25;5113402;28;20231;-59
2022/02/22 01:12:54;;;;;;;1.23;0.90;;;5.50;99.90;;;6.50;100.00;-19948.19;5114333;28;20205;-62
2022/02/22 01:15:22;;;;;;;3.27;0.90;;;5.50;99.90;;;6.41;100.00;-19944.94;5113761;28;20225;-60
2022/02/22 01:17:50;;;;;;;1.77;0.87;;;5.50;99.90;;;6.41;100.00;-19945.13;5113455;28;20228;-60
2022/02/22 01:20:19;;;;;;;2.53;1.10;;;5.50;99.90;;;6.43;100.00;-19945.63;5113402;28;20256;-60
2022/02/22 01:22:51;;;;;;;1.40;1.00;;;5.50;99.90;;;6.59;100.00;-19951.09;5113263;28;20300;-59
2022/02/22 01:25:21;;;;;;;2.13;0.93;;;5.50;99.90;;;6.46;100.00;-19946.66;5113583;28;20211;-60
2022/02/22 01:27:49;;;;;;;3.57;0.93;;;5.50;99.90;;;6.42;100.00;-19945.47;5113414;28;20221;-61
2022/02/22 01:30:17;;;;;;;1.97;1.00;;;5.50;99.90;;;6.37;100.00;-19943.59;5113830;28;20237;-61
2022/02/22 01:32:45;;;;;;;1.83;0.93;;;5.50;99.90;;;6.47;100.00;-19947.00;5112958;28;20235;-60
2022/02/22 01:35:14;;;;;;;1.93;0.80;;;5.50;99.90;;;6.36;100.00;-19943.25;5109656;28;20399;-60
2022/02/22 01:37:42;;;;;;;1.13;0.90;;;5.50;99.90;;;6.28;100.00;-19940.69;5092880;28;20272;-59
2022/02/22 01:40:11;;;;;;;3.27;1.40;;;5.50;99.90;;;6.55;100.00;-19949.72;5092203;28;20639;-61
2022/02/22 01:42:41;;;;;;;4.40;1.33;;;5.50;99.90;;;6.37;100.00;-19943.59;5093087;28;20293;-62
2022/02/22 01:45:10;;;;;;;1.53;0.90;;;5.40;99.90;;;6.42;100.00;-19945.28;5092463;28;20701;-60
2022/02/22 01:47:38;;;;;;;3.17;1.20;;;5.40;99.90;;;6.28;100.00;-19940.69;5092270;28;20303;-60
2022/02/22 01:50:09;;;;;;;4.53;1.20;;;5.40;99.90;;;6.19;100.00;-19937.59;5092407;28;20226;-59
2022/02/22 01:52:37;;;;;;;3.57;1.30;;;5.40;99.90;;;6.22;100.00;-19938.78;5091812;28;20902;-60
2022/02/22 01:55:08;;;;;;;2.20;1.10;;;5.40;99.90;;;6.10;100.00;-19934.53;5092177;28;20565;-60
2022/02/22 01:57:36;;;;;;;2.63;0.83;;;5.30;99.90;;;6.05;100.00;-19932.97;5093184;28;20576;-61
2022/02/22 02:00:10;;;;;;;2.37;1.00;;;5.30;99.90;;;6.12;100.00;-19935.38;5092006;28;20780;-61
2022/02/22 02:02:39;;;;;;;3.73;1.20;;;5.30;99.90;;;6.26;100.00;-19940.00;5092360;28;20313;-60
2022/02/22 02:05:09;;;;;;;5.17;1.60;;;5.30;99.90;;;6.27;100.00;-19940.16;5091736;28;20810;-60
2022/02/22 02:07:37;;;;;;;3.50;1.10;;;5.30;99.90;;;6.33;100.00;-19942.22;5092429;28;20593;-60
2022/02/22 02:10:05;;;;;;;5.30;1.30;;;5.40;99.90;;;6.35;100.00;-19943.06;5092573;28;20536;-60
2022/02/22 02:12:37;;;;;;;3.93;1.20;;;5.40;99.90;;;6.49;100.00;-19947.69;5092658;28;20254;-60
2022/02/22 02:15:08;;;;;;;2.30;0.90;;;5.50;99.90;;;6.57;100.00;-19950.41;5091881;28;20261;-60
2022/02/22 02:17:36;;;;;;;3.80;1.20;;;5.50;99.90;;;6.58;100.00;-19950.75;5112272;28;20742;-60
2022/02/22 02:20:06;;;;;;;2.37;1.53;;;5.60;99.90;;;6.58;100.00;-19950.75;5112039;28;20710;-60
2022/02/22 02:22:37;;;;;;;5.73;1.00;;;5.60;99.90;;;6.58;100.00;-19950.94;5112250;28;20235;-60
2022/02/22 02:25:07;;;;;;;2.43;1.07;;;5.60;99.90;;;6.53;100.00;-19949.22;5112716;28;20204;-60
2022/02/22 02:27:35;;;;;;;1.90;1.00;;;5.60;99.90;;;6.73;100.00;-19956.06;5111590;28;20268;-60
2022/02/22 02:30:04;;;;;;;3.10;1.20;;;5.60;99.90;;;6.61;100.00;-19951.97;5112221;28;20313;-60
2022/02/22 02:32:33;;;;;;;2.63;0.93;;;5.70;99.90;;;6.70;100.00;-19955.03;5111941;28;20536;-61
2022/02/22 02:35:01;;;;;;;4.13;0.90;;;5.70;99.90;;;6.67;100.00;-19954.00;5111649;28;20320;-60
2022/02/22 02:37:29;;;;;;;3.13;0.80;;;5.70;99.90;;;6.60;100.00;-19951.44;5112284;28;20286;-60
2022/02/22 02:39:58;;;;;;;2.03;0.80;;;5.70;99.90;;;6.80;100.00;-19958.28;5112124;28;20206;-59
2022/02/22 02:42:26;;;;;;;3.67;0.77;;;5.70;99.90;;;6.61;100.00;-19951.78;5111743;28;20815;-59
2022/02/22 02:44:54;;;;;;;2.80;0.87;;;5.80;99.90;;;6.70;100.00;-19955.03;5111397;28;20621;-60
2022/02/22 02:47:24;;;;;;;2.93;1.10;;;5.80;99.90;;;6.70;100.00;-19955.03;5111898;28;20233;-60
2022/02/22 02:49:52;;;;;;;3.33;0.90;;;5.80;99.90;;;6.68;100.00;-19954.34;5111563;28;20707;-61
2022/02/22 02:52:20;;;;;;;4.80;1.10;;;5.80;99.90;;;6.80;100.00;-19958.28;5111423;28;20238;-60
2022/02/22 02:54:48;;;;;;;4.43;1.33;;;5.80;99.90;;;6.73;100.00;-19956.06;5111698;28;20750;-60
2022/02/22 02:57:17;;;;;;;3.43;0.83;;;5.80;99.90;;;6.79;100.00;-19958.13;5111373;28;20784;-61
2022/02/22 02:59:47;;;;;;;2.43;1.00;;;5.80;99.90;;;6.86;100.00;-19960.34;5111475;28;20766;-61
2022/02/22 03:02:15;;;;;;;1.93;1.03;;;5.90;99.90;;;6.84;100.00;-19959.81;5111619;28;20514;-60
2022/02/22 03:04:44;;;;;;;4.83;1.30;;;5.90;99.90;;;6.81;100.00;-19958.63;5110995;28;20321;-59
2022/02/22 03:07:12;;;;;;;6.47;1.20;;;5.90;99.90;;;6.85;100.00;-19960.16;5111175;28;20206;-60
2022/02/22 03:09:40;;;;;;;6.00;1.40;;;5.90;99.90;;;6.71;100.00;-19955.38;5111696;28;20206;-61
2022/02/22 03:12:09;;;;;;;6.27;1.53;;;5.80;99.90;;;6.76;100.00;-19956.91;5111161;28;20230;-59
2022/02/22 03:14:38;;;;;;;6.77;1.70;;;5.90;99.90;;;6.72;100.00;-19955.72;5111030;28;20571;-60
2022/02/22 03:17:06;;;;;;;5.30;1.67;;;5.80;99.90;;;6.77;100.00;-19957.44;5111076;28;20308;-60
2022/02/22 03:19:34;;;;;;;4.60;1.60;;;5.80;99.90;;;6.79;100.00;-19957.94;5110925;28;20237;-60
2022/02/22 03:22:02;;;;;;;5.43;1.93;;;5.80;99.90;;;6.79;100.00;-19958.13;5111529;28;20302;-61
2022/02/22 03:24:30;;;;;;;5.43;2.07;;;5.90;99.90;;;6.80;100.00;-19958.28;5110564;28;20249;-60
2022/02/22 03:26:58;;;;;;;6.00;2.10;;;5.90;99.90;;;6.60;100.00;-19951.63;5110713;28;20313;-60
2022/02/22 03:29:26;;;;;;;10.43;2.33;;;5.80;99.90;;;6.64;100.00;-19952.97;5110504;28;20229;-61
2022/02/22 03:31:55;;;;;;;10.10;2.87;;;5.80;99.90;;;6.55;100.00;-19949.72;5110501;28;20604;-61
2022/02/22 03:34:23;;;;;;;10.60;3.00;;;5.70;99.90;;;6.69;100.00;-19954.69;5110717;28;20554;-61
2022/02/22 03:36:51;;;;;;;10.37;3.37;;;5.80;99.90;;;6.64;100.00;-19952.97;5110949;28;20679;-60
2022/02/22 03:39:19;;;;;;;13.53;3.27;;;5.80;99.90;;;6.64;100.00;-19952.97;5110482;28;20226;-60
2022/02/22 03:41:47;;;;;;;9.60;2.53;;;5.70;99.90;;;6.68;100.00;-19954.19;5110522;28;20261;-61
2022/02/22 03:44:15;;;;;;;12.20;2.73;;;5.70;99.90;;;6.63;100.00;-19952.47;5110230;28;20792;-60
2022/02/22 03:46:43;;;;;;;11.87;3.27;;;5.70;99.90;;;6.55;100.00;-19949.72;5110506;28;20226;-61
2022/02/22 03:49:13;;;;;;;11.07;3.27;;;5.70;99.90;;;6.62;100.00;-19952.13;5110592;28;20747;-59
2022/02/22 03:51:41;;;;;;;6.53;2.50;;;5.70;99.90;;;6.64;100.00;-19952.97;5110925;28;20588;-60
2022/02/22 03:54:09;;;;;;;11.17;2.43;;;5.70;99.90;;;6.64;100.00;-19952.97;5110118;28;20254;-60
2022/02/22 03:56:37;;;;;;;11.43;2.53;;;5.70;99.90;;;6.64;100.00;-19952.97;5110300;28;20241;-60
2022/02/22 03:59:05;;;;;;;15.20;3.33;;;5.70;99.90;;;6.60;100.00;-19951.44;5110560;28;20234;-60
2022/02/22 04:01:33;;;;;;;12.67;2.77;;;5.70;99.90;;;6.60;100.00;-19951.44;5110343;28;20719;-61
2022/02/22 04:04:01;;;;;;;11.63;3.50;;;5.70;99.90;;;6.67;100.00;-19953.84;5111056;28;20202;-59
2022/02/22 04:06:30;;;;;;;11.40;3.17;;;5.70;99.90;;;6.38;100.00;-19944.09;5110002;28;20233;-60
2022/02/22 04:08:58;;;;;;;13.13;3.10;;;5.60;99.90;;;6.08;100.00;-19933.84;5110249;28;20229;-59
2022/02/22 04:11:27;;;;;;;15.30;3.37;;;5.40;99.90;;;5.78;100.00;-19923.59;5109986;28;20233;-61
2022/02/22 04:13:55;;;;;;;10.97;3.53;;;5.20;99.90;;;5.55;100.00;-19915.88;5110385;28;20315;-60
2022/02/22 04:16:23;;;;;;;8.63;2.80;;;5.00;99.90;;;5.61;100.00;-19917.78;5113362;28;20238;-60
2022/02/22 04:18:53;;;;;;;10.80;2.60;;;4.90;99.90;;;5.53;100.00;-19915.03;5115133;28;20201;-61
2022/02/22 04:21:21;;;;;;;7.97;2.60;;;4.90;99.90;;;5.54;100.00;-19915.38;5113671;28;20221;-60
2022/02/22 04:23:51;;;;;;;9.23;2.30;;;4.80;99.90;;;5.32;100.00;-19908.03;5114298;28;20222;-59
2022/02/22 04:26:19;;;;;;;13.37;2.97;;;4.70;99.90;;;5.21;100.00;-19904.28;5114341;28;20276;-59
2022/02/22 04:28:47;;;;;;;10.93;3.10;;;4.70;99.90;;;5.17;100.00;-19902.91;5113996;28;20245;-60
2022/02/22 04:31:15;;;;;;;12.17;3.50;;;4.60;99.90;;;5.10;100.00;-19900.50;5114002;28;20223;-60
2022/02/22 04:33:43;;;;;;;9.13;2.97;;;4.50;99.90;;;5.29;100.00;-19906.84;5114819;28;20302;-59
2022/02/22 04:36:10;;;;;;;14.27;3.10;;;4.50;99.90;;;5.20;100.00;-19903.75;5113893;28;20224;-60
2022/02/22 04:38:39;;;;;;;12.17;3.27;;;4.50;99.90;;;5.33;100.00;-19908.19;5114152;28;20249;-60
2022/02/22 04:41:08;;;;;;;10.67;2.70;;;4.60;99.90;;;5.35;100.00;-19909.06;5113895;28;20225;-60
2022/02/22 04:43:36;;;;;;;11.43;2.73;;;4.60;99.90;;;5.30;100.00;-19907.19;5114227;28;20224;-59
2022/02/22 04:46:04;;;;;;;8.77;2.67;;;4.60;99.90;;;5.13;100.00;-19901.38;5114581;28;20222;-60
2022/02/22 04:48:32;;;;;;;11.67;2.27;;;4.50;99.90;;;4.94;100.00;-19895.03;5093620;28;20580;-60
2022/02/22 04:51:00;;;;;;;8.00;2.07;;;4.50;99.90;;;4.98;100.00;-19896.41;5093259;28;20725;-60
2022/02/22 04:53:28;;;;;;;9.20;2.30;;;4.40;99.90;;;4.76;100.00;-19889.06;5093176;28;20229;-59
2022/02/22 04:55:57;;;;;;;9.10;2.33;;;4.30;99.90;;;4.65;100.00;-19885.28;5093079;28;20390;-59
2022/02/22 04:58:27;;;;;;;12.37;2.40;;;4.10;99.90;;;4.52;100.00;-19880.69;5092974;28;20233;-61
2022/02/22 05:00:55;;;;;;;9.77;1.97;;;4.00;99.90;;;4.47;100.00;-19879.16;5093491;28;20652;-60
2022/02/22 05:03:23;;;;;;;9.10;2.00;;;4.00;99.90;;;4.66;100.00;-19885.63;5093035;28;20224;-60
2022/02/22 05:05:52;;;;;;;9.53;2.03;;;3.90;99.90;;;4.57;100.00;-19882.38;5092850;28;20226;-59
2022/02/22 05:08:21;;;;;;;8.17;1.90;;;3.90;99.90;;;4.50;100.00;-19880.16;5092694;28;20306;-60
2022/02/22 05:10:49;;;;;;;6.93;1.73;;;3.90;99.90;;;4.43;100.00;-19877.59;5092833;28;20722;-61
2022/02/22 05:13:17;;;;;;;8.90;1.67;;;3.80;99.90;;;4.22;100.00;-19870.59;5092617;28;20207;-60
2022/02/22 05:15:47;;;;;;;7.07;1.40;;;3.70;99.90;;;4.36;100.00;-19875.38;5093191;28;20560;-60
2022/02/22 05:18:15;;;;;;;5.07;1.80;;;3.80;99.90;;;4.36;100.00;-19875.38;5092049;28;20240;-59
2022/02/22 05:20:54;;;;;;;5.57;1.70;;;3.70;99.90;;;4.32;100.00;-19874.03;5098770;28;20301;-60
2022/02/22 05:23:23;;;;;;;8.37;1.87;;;3.70;99.90;;;4.30;100.00;-19873.34;5092882;28;20287;-60
2022/02/22 05:25:52;;;;;;;4.93;1.80;;;3.70;99.90;;;4.39;100.00;-19876.25;5092236;28;20316;-59
2022/02/22 05:28:22;;;;;;;6.53;2.20;;;3.70;99.90;;;4.46;100.00;-19878.63;5091278;28;20607;-59
2022/02/22 05:30:52;;;;;;;4.93;1.93;;;3.80;99.90;;;4.59;100.00;-19883.06;5092910;28;20254;-59
2022/02/22 05:33:21;;;;;;;8.97;2.33;;;3.80;99.90;;;4.81;100.00;-19890.59;5092620;28;20316;-59
2022/02/22 05:35:52;;;;;;;6.70;2.40;;;3.90;99.90;;;4.76;100.00;-19889.06;5107193;28;20223;-60
2022/02/22 05:38:21;;;;;;;6.00;1.87;;;4.00;99.90;;;5.01;100.00;-19897.25;5112885;28;20342;-59
2022/02/22 05:40:49;;;;;;;6.80;1.90;;;4.10;99.90;;;4.87;100.00;-19892.81;5112648;28;20294;-60
2022/02/22 05:43:17;;;;;;;15.73;2.70;;;4.20;99.90;;;5.03;100.00;-19897.94;5112547;28;20199;-59
2022/02/22 05:45:44;;;;;;;10.63;2.57;;;4.20;99.90;;;5.09;100.00;-19900.16;5113170;28;20221;-60
2022/02/22 05:48:14;;;;;;;9.10;2.47;;;4.40;99.90;;;5.09;100.00;-19900.16;5112687;28;20227;-58
2022/02/22 05:50:42;;;;;;;11.53;2.27;;;4.30;99.90;;;5.14;100.00;-19901.72;5112455;28;20747;-60
2022/02/22 05:53:10;;;;;;;11.50;2.40;;;4.30;99.90;;;5.33;100.00;-19908.19;5112405;28;20833;-59
2022/02/22 05:55:39;;;;;;;8.63;2.40;;;4.40;99.90;;;5.52;100.00;-19914.69;5112246;28;20262;-60
2022/02/22 05:58:07;;;;;;;11.10;2.60;;;4.50;99.90;;;5.42;100.00;-19911.44;5112415;28;20203;-60
2022/02/22 06:00:35;;;;;;;14.87;2.53;;;4.50;99.90;;;5.57;100.00;-19916.41;5112786;28;20201;-59
2022/02/22 06:03:04;;;;;;;11.50;3.20;;;4.60;99.90;;;5.39;100.00;-19910.25;5112127;28;20713;-61
2022/02/22 06:05:33;;;;;;;13.43;2.97;;;4.60;99.90;;;5.59;100.00;-19917.25;5112204;28;20638;-59
2022/02/22 06:08:01;;;;;;;10.83;2.90;;;4.60;99.90;;;5.63;100.00;-19918.63;5112344;28;20235;-60
2022/02/22 06:10:29;;;;;;;12.57;2.90;;;4.70;99.90;;;5.73;100.00;-19922.03;5112295;28;20308;-59
2022/02/22 06:12:57;;;;;;;9.40;2.67;;;4.70;99.90;;;5.43;100.00;-19911.63;5112423;28;20220;-59
2022/02/22 06:15:25;;;;;;;11.63;2.90;;;4.70;99.90;;;5.38;100.00;-19910.06;5111943;28;20850;-60
2022/02/22 06:17:53;;;;;;;11.13;2.73;;;4.60;99.90;;;5.17;100.00;-19902.72;5111727;28;20248;-59
2022/02/22 06:20:21;;;;;;;8.93;3.00;;;4.50;99.90;;;5.12;100.00;-19901.19;5111557;28;20761;-60
2022/02/22 06:22:50;;;;;;;14.53;4.00;;;4.40;99.90;;;5.05;100.00;-19898.63;5111893;28;20316;-60
2022/02/22 06:25:18;;;;;;;11.90;2.93;;;4.30;99.90;;;5.23;100.00;-19904.94;5111724;28;20205;-59
2022/02/22 06:27:52;;;;;;;14.20;2.70;;;4.30;99.90;;;4.93;100.00;-19894.88;5111917;28;20213;-59
2022/02/22 06:30:22;;;;;;;12.43;2.80;;;4.30;99.90;;;4.99;100.00;-19896.91;5111451;28;20224;-59
2022/02/22 06:32:52;;;;;;;9.10;2.87;;;4.20;99.90;;;5.00;100.00;-19897.09;5096796;28;20632;-59
2022/02/22 06:35:21;;;;;;;15.50;3.20;;;4.20;99.90;;;5.14;100.00;-19901.72;5101898;28;20588;-60
2022/02/22 06:37:50;;;;;;;11.00;2.80;;;4.20;99.90;;;5.07;100.00;-19899.50;5111391;28;20224;-60
2022/02/22 06:40:18;;;;;;;11.87;2.87;;;4.20;99.90;;;4.90;100.00;-19893.84;5111456;28;20200;-60
2022/02/22 06:42:52;;;;;;;9.93;2.77;;;4.20;99.90;;;5.02;100.00;-19897.59;5112205;28;20180;-60
2022/02/22 06:45:20;;;;;;;10.13;2.57;;;4.20;99.90;;;5.13;100.00;-19901.53;5112271;28;20634;-60
2022/02/22 06:47:48;;;;;;;12.10;2.77;;;4.30;99.90;;;5.14;100.00;-19901.72;5113633;28;20780;-61
2022/02/22 06:50:17;;;;;;;11.87;2.73;;;4.30;99.90;;;5.06;100.00;-19898.97;5111777;28;20259;-61
2022/02/22 06:52:45;;;;;;;9.77;2.80;;;4.30;99.90;;;5.06;100.00;-19898.97;5111603;28;20714;-60
2022/02/22 06:55:16;;;;;;;9.83;3.17;;;4.30;99.90;;;5.19;100.00;-19903.41;5110932;28;20718;-60
2022/02/22 06:57:49;;;;;;;11.97;2.70;;;4.40;99.90;;;5.51;100.00;-19914.34;5111983;28;20277;-61
2022/02/22 07:00:18;;;;;;;11.37;3.20;;;4.50;99.90;;;5.66;100.00;-19919.47;5111128;28;20305;-60
2022/02/22 07:02:46;;;;;;;9.63;2.77;;;4.70;99.90;;;5.96;100.00;-19929.75;5111437;28;20227;-60
2022/02/22 07:05:14;;;;;;;10.80;2.70;;;4.80;99.90;;;6.13;100.00;-19935.56;5111263;28;20227;-62
2022/02/22 07:07:49;;;;;;;10.67;2.53;;;5.00;99.90;;;6.22;100.00;-19938.47;5111114;28;20589;-60
2022/02/22 07:10:17;;;;;;;12.57;3.47;;;5.10;99.90;;;6.32;100.00;-19941.88;5110475;28;20209;-61
2022/02/22 07:12:46;;;;;;;11.10;3.17;;;5.20;99.90;;;6.25;100.00;-19939.66;5111913;28;20624;-60
2022/02/22 07:15:15;;;;;;;13.13;3.20;;;5.30;99.90;;;6.21;100.00;-19938.28;5110942;28;20309;-60
2022/02/22 07:17:48;;;;;;;12.03;2.90;;;5.30;99.90;;;6.29;100.00;-19941.03;5111164;28;20237;-60
2022/02/22 07:20:17;;;;;;;15.83;3.17;;;5.40;99.90;;;6.37;100.00;-19943.59;5110850;28;20261;-60
2022/02/22 07:22:48;;;;;;;10.97;3.37;;;5.40;99.90;;;6.30;100.00;-19941.19;5111340;28;20222;-62
2022/02/22 07:25:19;;;;;;;12.13;3.17;;;5.40;99.90;;;6.49;100.00;-19947.84;5110755;28;20280;-61
2022/02/22 07:27:47;;;;;;;15.50;3.13;;;5.40;99.90;;;6.45;100.00;-19946.50;5111152;28;20679;-61
2022/02/22 07:30:20;;;;;;;8.43;2.83;;;5.50;99.90;;;6.45;100.00;-19946.31;5110874;28;20303;-61
2022/02/22 07:32:50;;;;;;;11.43;3.20;;;5.40;99.90;;;6.46;100.00;-19946.81;5096474;28;20271;-61
2022/02/22 07:35:18;;;;;;;9.57;2.63;;;5.40;99.90;;;6.34;100.00;-19942.56;5100378;28;20264;-60
2022/02/22 07:37:47;;;;;;;11.27;3.17;;;5.40;99.90;;;6.25;100.00;-19939.66;5109087;28;20243;-60
2022/02/22 07:40:18;;;;;;;12.23;2.73;;;5.40;99.90;;;6.34;100.00;-19942.72;5109217;28;20248;-61
2022/02/22 07:42:54;;;;;;;12.80;2.50;;;5.40;99.90;;;6.51;100.00;-19948.53;5110074;28;20210;-60
2022/02/22 07:45:23;;;;;;;9.20;2.80;;;5.40;99.90;;;6.57;100.00;-19950.59;5109985;28;20308;-62
2022/02/22 07:47:51;;;;;;;13.20;2.80;;;5.50;99.90;;;6.63;100.00;-19952.47;5110435;28;20250;-62
2022/02/22 07:50:19;;;;;;;15.57;3.73;;;5.50;99.90;;;6.82;100.00;-19958.97;5111060;28;20245;-61
2022/02/22 07:52:48;;;;;;;7.00;2.30;;;5.60;99.90;;;6.43;100.00;-19945.81;5112992;27;20735;-63
2022/02/22 07:55:16;;;;;;;12.73;2.90;;;5.50;99.90;;;6.37;100.00;-19943.59;5114766;28;20228;-61
2022/02/22 07:57:47;;;;;;;9.30;2.80;;;5.40;99.90;;;6.17;100.00;-19937.09;5115355;28;20713;-61
2022/02/22 08:00:15;;;;;;;6.40;1.90;;;5.30;99.90;;;6.39;100.00;-19944.44;5114471;28;20645;-58
2022/02/22 08:02:49;;;;;;;7.50;2.63;;;5.30;99.90;;;6.61;100.00;-19951.78;5114727;28;20230;-59
2022/02/22 08:05:17;;;;;;;5.63;2.13;;;5.40;99.90;;;6.74;100.00;-19956.41;5114101;28;20219;-60
2022/02/22 08:07:45;;;;;;;6.13;2.30;;;5.60;99.90;;;7.05;100.00;-19967.00;5114787;28;20320;-58
2022/02/22 08:10:13;;;;;;;9.87;2.50;;;5.80;99.90;;;7.41;100.00;-19979.13;5113910;28;20237;-58
2022/02/22 08:12:42;;;;;;;7.07;2.40;;;6.00;99.90;;;7.32;100.00;-19976.22;5114987;28;20207;-58
2022/02/22 08:15:10;;;;;;;11.37;2.73;;;6.10;99.90;;;7.36;100.00;-19977.41;5114097;28;20692;-59
2022/02/22 08:17:41;;;;;;;9.00;2.93;;;6.10;99.90;;;7.25;100.00;-19973.66;5114372;28;20219;-59
2022/02/22 08:20:12;;;;;;;10.97;2.97;;;6.10;99.90;;;7.22;100.00;-19972.63;5114005;28;20233;-59
2022/02/22 08:22:40;;;;;;;10.20;2.77;;;6.10;99.90;;;7.14;100.00;-19969.91;5113857;28;20780;-56
2022/02/22 08:25:09;;;;;;;9.50;2.60;;;6.00;99.90;;;7.17;100.00;-19971.09;5114225;28;20234;-59
2022/02/22 08:27:38;;;;;;;10.83;2.67;;;6.10;99.90;;;7.06;100.00;-19967.16;5114397;28;20225;-59
2022/02/22 08:30:07;;;;;;;8.20;2.67;;;6.00;99.90;;;7.03;100.00;-19966.16;5113984;28;20234;-59
2022/02/22 08:32:36;;;;;;;11.17;2.43;;;5.90;99.90;;;7.00;100.00;-19965.28;5101320;28;20234;-61
2022/02/22 08:35:05;;;;;;;8.17;2.63;;;5.90;99.90;;;6.87;100.00;-19960.84;5101909;28;20257;-61
2022/02/22 08:37:34;;;;;;;7.90;2.53;;;5.80;99.90;;;7.01;100.00;-19965.63;5114144;28;20227;-60
2022/02/22 08:40:03;;;;;;;9.53;2.47;;;5.90;99.90;;;7.09;100.00;-19968.19;5114601;28;20207;-59
2022/02/22 08:42:36;;;;;;;13.97;3.93;;;6.00;99.90;;;7.25;100.00;-19973.66;5114176;28;20206;-60
2022/02/22 08:45:21;;;;;;;9.77;2.47;;;6.00;99.90;;;7.09;100.00;-19968.38;5113631;28;20854;-60
2022/02/22 08:47:50;;;;;;;9.00;2.70;;;6.00;99.90;;;7.09;100.00;-19968.19;5113953;28;20227;-60
2022/02/22 08:50:18;;;;;;;9.80;2.67;;;6.00;99.90;;;6.97;100.00;-19964.25;5113483;28;20230;-60
2022/02/22 08:52:48;;;;;;;14.53;2.83;;;5.80;99.90;;;7.21;100.00;-19972.47;5113796;28;20223;-61
2022/02/22 08:55:17;;;;;;;14.17;3.50;;;6.20;99.90;;;7.18;100.00;-19971.28;5113346;28;20728;-60
2022/02/22 08:57:45;;;;;;;11.93;2.50;;;6.10;99.90;;;7.31;100.00;-19975.88;5114275;28;20208;-61
2022/02/22 09:00:15;;;;;;;10.00;2.80;;;6.20;99.90;;;7.39;100.00;-19978.44;5113941;28;20341;-62
2022/02/22 09:02:43;;;;;;;11.07;3.20;;;6.20;99.90;;;7.79;100.00;-19991.94;5112912;28;20314;-62
2022/02/22 09:05:12;;;;;;;10.60;3.03;;;6.40;99.90;;;8.06;99.32;-20001.34;5110196;28;20655;-61
2022/02/22 09:07:40;;;;;;;11.77;2.93;;;6.60;99.90;;;8.28;99.84;-20008.69;5092727;28;20874;-59
2022/02/22 09:10:12;;;;;;;15.63;2.83;;;6.70;99.90;;;8.42;97.46;-20013.47;5092638;28;20204;-60
2022/02/22 09:12:41;;;;;;;11.87;3.03;;;6.90;99.90;;;8.52;97.34;-20016.91;5093203;28;20254;-61
2022/02/22 09:15:10;;;;;;;12.27;3.50;;;7.00;99.90;;;8.37;97.96;-20011.78;5092857;28;20227;-60
2022/02/22 09:17:39;;;;;;;11.73;3.10;;;7.00;99.90;;;8.32;97.81;-20010.06;5092853;28;20730;-61
2022/02/22 09:20:11;;;;;;;14.93;3.60;;;7.00;99.90;;;8.17;97.30;-20004.94;5092969;28;20574;-61
2022/02/22 09:22:40;;;;;;;11.00;2.93;;;6.90;99.90;;;8.41;97.18;-20013.13;5092581;28;20653;-60
2022/02/22 09:25:15;;;;;;;14.67;3.27;;;7.00;99.90;;;8.58;98.57;-20018.94;5092559;28;20231;-58
2022/02/22 09:27:44;;;;;;;8.13;2.60;;;7.10;99.90;;;8.38;97.65;-20012.09;5096187;28;20257;-59
2022/02/22 09:30:15;;;;;;;11.57;2.77;;;7.10;99.90;;;8.30;96.41;-20009.53;5112710;28;20254;-60
2022/02/22 09:32:45;;;;;;;14.33;3.20;;;7.00;99.90;;;7.99;98.06;-19998.78;5098671;28;20615;-59
2022/02/22 09:35:17;;;;;;;12.20;2.80;;;6.90;99.90;;;7.88;98.61;-19995.03;5102004;28;20225;-57
2022/02/22 09:37:46;;;;;;;9.67;2.47;;;6.80;99.90;;;8.05;98.90;-20001.00;5107243;28;20220;-58
2022/02/22 09:40:16;;;;;;;11.83;2.80;;;6.80;99.90;;;8.15;99.29;-20004.25;5093722;28;20203;-56
2022/02/22 09:42:45;;;;;;;4.47;2.13;;;6.80;99.90;;;8.14;97.03;-20003.91;5111974;28;20564;-60
2022/02/22 09:45:15;;;;;;;9.67;2.50;;;6.90;99.90;;;8.69;94.24;-20022.53;5094408;28;20635;-60
2022/02/22 09:47:45;;;;;;;9.70;3.00;;;7.20;99.90;;;8.89;93.41;-20029.38;5105730;28;20234;-60
2022/02/22 09:50:16;;;;;;;8.37;2.33;;;7.40;99.90;;;8.72;92.96;-20023.72;5112570;28;20231;-61
2022/02/22 09:52:45;;;;;;;9.23;2.60;;;7.40;99.90;;;8.71;92.67;-20023.22;5112313;28;20305;-60
2022/02/22 09:55:18;;;;;;;7.27;2.50;;;7.40;99.90;;;8.82;90.11;-20027.16;5112303;28;20187;-60
2022/02/22 09:57:52;;;;;;;9.30;2.43;;;7.50;99.90;;;8.46;89.00;-20014.84;5112374;28;20195;-60
2022/02/22 10:00:26;;;;;;;7.50;2.97;;;7.30;99.90;;;8.19;91.21;-20005.59;5112015;28;20280;-61
2022/02/22 10:03:01;;;;;;;10.70;2.97;;;7.20;99.90;;;8.13;89.31;-20003.72;5095746;28;20298;-60
2022/02/22 10:05:29;;;;;;;10.17;3.00;;;7.10;99.90;;;7.91;90.08;-19996.03;5091605;28;20277;-60
2022/02/22 10:08:00;;;;;;;9.30;2.97;;;6.90;99.90;;;7.93;91.98;-19996.72;5091393;28;20281;-59
2022/02/22 10:10:41;;;;;;;9.70;3.07;;;6.80;99.90;;;8.11;89.95;-20002.88;5091467;28;20220;-59
2022/02/22 10:13:17;;;;;;;11.83;2.83;;;6.90;99.90;;;8.36;89.06;-20011.44;5090733;28;20192;-56
2022/02/22 10:15:46;;;;;;;12.93;3.20;;;7.00;99.90;;;8.30;87.33;-20009.38;5092386;28;20180;-57
2022/02/22 10:18:16;;;;;;;12.40;3.13;;;7.10;99.90;;;8.34;88.32;-20010.91;5091413;28;20273;-58
2022/02/22 10:20:49;;;;;;;9.53;3.03;;;7.10;99.90;;;8.47;87.42;-20015.19;5091456;28;20252;-59
2022/02/22 10:23:28;;;;;;;10.20;3.07;;;7.20;99.90;;;8.63;85.02;-20020.66;5091319;28;20289;-56
2022/02/22 10:26:00;;;;;;;10.57;3.10;;;7.30;99.90;;;8.76;83.83;-20025.09;5091507;28;20220;-58